createdAt,value
2023-01-31T00:01:41.136Z,4.70
2023-01-31T00:04:19.605Z,4.70
2023-01-31T00:07:12.821Z,4.60
2023-01-31T00:09:46.995Z,4.60
2023-01-31T00:12:15.708Z,4.50
2023-01-31T00:14:47.560Z,4.60
2023-01-31T00:17:16.082Z,4.70
2023-01-31T00:19:48.654Z,4.50
2023-01-31T00:22:25.331Z,4.70
2023-01-31T00:24:55.126Z,4.50
2023-01-31T00:27:27.365Z,4.50
2023-01-31T00:29:58.389Z,4.60
2023-01-31T00:32:27.262Z,4.50
2023-01-31T00:34:55.706Z,4.60
2023-01-31T00:37:24.036Z,4.50
2023-01-31T00:39:52.487Z,4.60
2023-01-31T00:42:20.702Z,4.70
2023-01-31T00:44:49.175Z,4.50
2023-01-31T00:47:19.032Z,4.60
2023-01-31T00:49:47.442Z,4.60
2023-01-31T00:52:15.620Z,4.60
2023-01-31T00:54:44.273Z,4.60
2023-01-31T00:57:12.566Z,4.60
2023-01-31T00:59:40.941Z,4.60
2023-01-31T01:02:09.336Z,4.50
2023-01-31T01:04:39.154Z,4.50
2023-01-31T01:07:07.250Z,4.50
2023-01-31T01:09:35.596Z,4.60
2023-01-31T01:12:04.426Z,4.50
2023-01-31T01:14:33.045Z,4.50
2023-01-31T01:17:01.547Z,4.70
2023-01-31T01:19:29.811Z,4.50
2023-01-31T01:21:59.406Z,4.50
2023-01-31T01:24:28.044Z,4.50
2023-01-31T01:26:56.173Z,4.50
2023-01-31T01:29:24.307Z,4.50
2023-01-31T01:31:58.611Z,4.40
2023-01-31T01:34:27.059Z,4.40
2023-01-31T01:36:55.381Z,4.30
2023-01-31T01:39:26.202Z,4.30
2023-01-31T01:41:54.604Z,4.30
2023-01-31T01:44:44.661Z,4.30
2023-01-31T01:47:18.147Z,4.30
2023-01-31T01:49:48.962Z,4.20
2023-01-31T01:52:18.933Z,4.20
2023-01-31T01:54:53.746Z,4.10
2023-01-31T01:57:27.234Z,4.10
2023-01-31T02:00:04.453Z,4.00
2023-01-31T02:02:32.849Z,3.90
2023-01-31T02:05:01.132Z,3.80
2023-01-31T02:07:29.450Z,3.70
2023-01-31T02:10:06.096Z,3.60
2023-01-31T02:12:35.145Z,3.50
2023-01-31T02:15:05.572Z,3.50
2023-01-31T02:17:37.023Z,3.50
2023-01-31T02:20:25.695Z,3.50
2023-01-31T02:23:08.305Z,3.50
2023-01-31T02:26:13.997Z,3.60
2023-01-31T02:29:01.380Z,3.70
2023-01-31T02:32:01.228Z,3.80
2023-01-31T02:34:38.857Z,3.80
2023-01-31T02:37:21.933Z,3.80
2023-01-31T02:39:59.717Z,3.70
2023-01-31T02:42:37.260Z,3.70
2023-01-31T02:45:11.528Z,3.80
2023-01-31T02:47:58.660Z,3.80
2023-01-31T02:50:32.083Z,3.70
2023-01-31T02:53:05.337Z,3.70
2023-01-31T02:55:56.098Z,3.60
2023-01-31T02:58:28.102Z,3.50
2023-01-31T03:00:59.070Z,3.50
2023-01-31T03:03:31.220Z,3.40
2023-01-31T03:06:35.762Z,3.30
2023-01-31T03:09:08.088Z,3.30
2023-01-31T03:11:41.813Z,3.30
2023-01-31T03:14:20.416Z,3.20
2023-01-31T03:17:11.584Z,3.20
2023-01-31T03:19:48.992Z,3.20
2023-01-31T03:22:24.807Z,3.20
2023-01-31T03:24:54.783Z,3.20
2023-01-31T03:27:24.012Z,3.20
2023-01-31T03:29:54.596Z,3.20
2023-01-31T03:32:26.646Z,3.20
2023-01-31T03:34:55.485Z,3.10
2023-01-31T03:37:32.512Z,3.10
2023-01-31T03:40:05.839Z,3.00
2023-01-31T03:42:43.080Z,3.00
2023-01-31T03:45:16.970Z,3.10
2023-01-31T03:47:48.312Z,3.10
2023-01-31T03:50:20.986Z,3.10
2023-01-31T03:52:56.070Z,3.10
2023-01-31T03:55:32.731Z,3.20
2023-01-31T03:58:02.689Z,3.20
2023-01-31T04:00:30.871Z,3.20
2023-01-31T04:03:06.338Z,3.20
2023-01-31T04:05:34.744Z,3.20
2023-01-31T04:08:04.061Z,3.20
2023-01-31T04:10:32.399Z,3.30
2023-01-31T04:13:01.546Z,3.40
2023-01-31T04:15:29.511Z,3.40
2023-01-31T04:17:57.420Z,3.60
2023-01-31T04:20:25.415Z,3.40
2023-01-31T04:22:53.366Z,3.40
2023-01-31T04:25:23.230Z,3.40
2023-01-31T04:27:51.617Z,3.40
2023-01-31T04:30:19.800Z,3.50
2023-01-31T04:32:47.692Z,3.40
2023-01-31T04:35:15.754Z,3.40
2023-01-31T04:37:43.722Z,3.40
2023-01-31T04:40:13.857Z,3.30
2023-01-31T04:42:43.267Z,3.40
2023-01-31T04:45:12.308Z,3.40
2023-01-31T04:47:40.216Z,3.40
2023-01-31T04:50:09.809Z,3.50
2023-01-31T04:52:37.892Z,3.50
2023-01-31T04:55:06.866Z,3.40
2023-01-31T04:57:34.925Z,3.40
2023-01-31T05:00:04.337Z,3.40
2023-01-31T05:02:32.907Z,3.50
2023-01-31T05:05:01.585Z,3.50
2023-01-31T05:07:29.711Z,3.40
2023-01-31T05:09:57.664Z,3.40
2023-01-31T05:12:26.854Z,3.40
2023-01-31T05:14:54.859Z,3.40
2023-01-31T05:17:29.526Z,3.50
2023-01-31T05:19:57.639Z,3.50
2023-01-31T05:22:25.640Z,3.50
2023-01-31T05:24:53.788Z,3.60
2023-01-31T05:27:21.680Z,3.70
2023-01-31T05:29:49.723Z,3.80
2023-01-31T05:32:19.399Z,3.90
2023-01-31T05:34:48.621Z,3.90
2023-01-31T05:37:16.521Z,4.00
2023-01-31T05:39:44.531Z,4.00
2023-01-31T05:42:12.510Z,4.00
2023-01-31T05:44:40.451Z,4.10
2023-01-31T05:47:08.365Z,4.00
2023-01-31T05:49:36.788Z,4.00
2023-01-31T05:52:06.179Z,4.00
2023-01-31T05:54:34.656Z,3.90
2023-01-31T05:57:03.350Z,3.90
2023-01-31T05:59:33.570Z,3.90
2023-01-31T06:02:02.232Z,4.10
2023-01-31T06:04:30.776Z,4.00
2023-01-31T06:06:59.169Z,4.00
2023-01-31T06:09:28.493Z,4.00
2023-01-31T06:11:56.485Z,4.00
2023-01-31T06:14:24.568Z,4.00
2023-01-31T06:16:52.491Z,4.00
2023-01-31T06:19:25.221Z,4.00
2023-01-31T06:21:53.263Z,4.10
2023-01-31T06:24:21.306Z,4.10
2023-01-31T06:26:50.715Z,4.10
2023-01-31T06:29:18.760Z,4.10
2023-01-31T06:31:46.921Z,4.10
2023-01-31T06:34:14.866Z,4.10
2023-01-31T06:36:42.753Z,4.10
2023-01-31T06:39:11.963Z,4.10
2023-01-31T06:41:40.012Z,4.20
2023-01-31T06:44:09.353Z,4.20
2023-01-31T06:46:37.354Z,4.20
2023-01-31T06:49:05.323Z,4.10
2023-01-31T06:51:33.309Z,4.10
2023-01-31T06:54:01.289Z,4.10
2023-01-31T06:56:29.215Z,4.10
2023-01-31T06:58:57.147Z,4.10
2023-01-31T07:01:26.834Z,4.10
2023-01-31T07:03:54.744Z,4.20
2023-01-31T07:06:22.945Z,4.20
2023-01-31T07:08:50.929Z,4.20
2023-01-31T07:11:18.938Z,4.20
2023-01-31T07:13:47.925Z,4.30
2023-01-31T07:16:16.947Z,4.20
2023-01-31T07:18:46.482Z,4.20
2023-01-31T07:21:14.480Z,4.10
2023-01-31T07:23:43.682Z,4.10
2023-01-31T07:26:11.567Z,4.20
2023-01-31T07:28:39.584Z,4.20
2023-01-31T07:31:10.988Z,4.20
2023-01-31T07:33:39.857Z,4.30
2023-01-31T07:36:12.998Z,4.30
2023-01-31T07:38:41.095Z,4.40
2023-01-31T07:41:11.631Z,4.40
2023-01-31T07:43:39.848Z,4.80
2023-01-31T07:46:11.019Z,5.40
2023-01-31T07:48:39.707Z,5.90
2023-01-31T07:51:09.572Z,6.50
2023-01-31T07:53:42.137Z,7.10
2023-01-31T07:56:12.396Z,7.90
2023-01-31T07:58:41.868Z,8.50
2023-01-31T08:01:33.067Z,8.90
2023-01-31T08:04:18.249Z,9.20
2023-01-31T08:06:51.904Z,9.60
2023-01-31T08:09:19.902Z,10.00
2023-01-31T08:11:47.895Z,9.90
2023-01-31T08:14:15.949Z,9.50
2023-01-31T08:16:43.893Z,8.90
2023-01-31T08:19:11.817Z,8.30
2023-01-31T08:21:39.715Z,7.70
2023-01-31T08:24:10.132Z,7.20
2023-01-31T08:26:38.101Z,6.80
2023-01-31T08:29:06.054Z,6.60
2023-01-31T08:31:34.084Z,6.40
2023-01-31T08:34:03.247Z,6.30
2023-01-31T08:36:32.969Z,6.40
2023-01-31T08:39:01.259Z,6.50
2023-01-31T08:41:33.050Z,6.30
2023-01-31T08:44:02.850Z,7.00
2023-01-31T08:46:33.982Z,8.70
2023-01-31T08:49:03.159Z,10.50
2023-01-31T08:51:31.549Z,10.50
2023-01-31T08:53:59.913Z,9.90
2023-01-31T08:56:37.461Z,9.00
2023-01-31T08:59:06.952Z,8.10
2023-01-31T09:01:36.529Z,7.60
2023-01-31T09:04:05.013Z,7.30
2023-01-31T09:06:33.509Z,7.00
2023-01-31T09:09:01.614Z,6.80
2023-01-31T09:11:30.868Z,6.50
2023-01-31T09:13:59.447Z,6.40
2023-01-31T09:16:29.117Z,6.30
2023-01-31T09:18:58.191Z,6.20
2023-01-31T09:21:26.549Z,6.10
2023-01-31T09:23:57.553Z,6.10
2023-01-31T09:26:26.290Z,6.10
2023-01-31T09:28:54.663Z,6.10
2023-01-31T09:31:22.945Z,6.00
2023-01-31T09:33:54.491Z,6.00
2023-01-31T09:36:24.021Z,6.00
2023-01-31T09:38:55.510Z,6.00
2023-01-31T09:41:29.579Z,5.90
2023-01-31T09:44:01.031Z,5.90
2023-01-31T09:46:34.839Z,5.90
2023-01-31T09:49:09.393Z,5.90
2023-01-31T09:51:38.635Z,5.80
2023-01-31T09:54:12.525Z,5.90
2023-01-31T09:56:43.767Z,5.80
2023-01-31T09:59:21.628Z,5.80
2023-01-31T10:01:59.063Z,6.00
2023-01-31T10:04:48.021Z,6.10
2023-01-31T10:07:25.193Z,6.20
2023-01-31T10:09:58.033Z,6.30
2023-01-31T10:12:31.773Z,6.30
2023-01-31T10:15:04.483Z,6.30
2023-01-31T10:17:36.500Z,6.40
2023-01-31T10:20:14.877Z,6.50
2023-01-31T10:22:48.272Z,6.50
2023-01-31T10:25:26.677Z,6.60
2023-01-31T10:27:59.202Z,6.50
2023-01-31T10:30:33.566Z,6.40
2023-01-31T10:33:10.442Z,6.40
2023-01-31T10:35:45.048Z,6.50
2023-01-31T10:38:19.308Z,6.60
2023-01-31T10:40:52.450Z,6.80
2023-01-31T10:43:28.991Z,6.90
2023-01-31T10:46:00.334Z,7.00
2023-01-31T10:48:30.371Z,7.30
2023-01-31T10:51:11.249Z,7.30
2023-01-31T10:53:58.064Z,7.40
2023-01-31T10:56:32.816Z,7.40
2023-01-31T10:59:03.731Z,7.10
2023-01-31T11:01:32.100Z,7.00
2023-01-31T11:04:02.572Z,6.90
2023-01-31T11:06:32.326Z,6.80
2023-01-31T11:09:02.200Z,6.70
2023-01-31T11:11:30.937Z,6.60
2023-01-31T11:14:01.156Z,6.40
2023-01-31T11:16:32.051Z,6.40
2023-01-31T11:19:04.593Z,6.30
2023-01-31T11:21:38.169Z,6.20
2023-01-31T11:24:09.292Z,6.10
2023-01-31T11:26:40.178Z,6.10
2023-01-31T11:29:17.866Z,6.10
2023-01-31T11:31:47.603Z,6.10
2023-01-31T11:34:26.397Z,6.40
2023-01-31T11:37:05.364Z,7.00
2023-01-31T11:39:35.608Z,7.50
2023-01-31T11:42:07.748Z,7.70
2023-01-31T11:45:07.729Z,7.70
2023-01-31T11:47:47.525Z,8.00
2023-01-31T11:50:25.610Z,8.10
2023-01-31T11:52:58.936Z,7.90
2023-01-31T11:55:28.552Z,7.40
2023-01-31T11:58:00.687Z,7.40
2023-01-31T12:00:33.260Z,7.50
2023-01-31T12:03:08.219Z,7.50
2023-01-31T12:05:42.024Z,7.50
2023-01-31T12:08:32.991Z,7.40
2023-01-31T12:11:04.982Z,7.30
2023-01-31T12:13:33.000Z,7.10
2023-01-31T12:16:03.428Z,7.00
2023-01-31T12:18:48.458Z,6.80
2023-01-31T12:21:18.152Z,6.50
2023-01-31T12:24:00.890Z,6.30
2023-01-31T12:26:39.022Z,6.20
2023-01-31T12:29:25.447Z,6.20
2023-01-31T12:32:07.140Z,6.20
2023-01-31T12:35:01.653Z,6.20
2023-01-31T12:37:47.592Z,6.20
2023-01-31T12:40:33.498Z,6.30
2023-01-31T12:43:04.264Z,6.20
2023-01-31T12:45:56.470Z,6.20
2023-01-31T12:48:53.204Z,6.10
2023-01-31T12:51:32.975Z,6.00
2023-01-31T12:54:12.214Z,6.00
2023-01-31T12:57:08.406Z,6.00
2023-01-31T12:59:51.799Z,6.10
2023-01-31T13:02:40.483Z,6.00
2023-01-31T13:05:28.240Z,6.00
2023-01-31T13:08:04.982Z,6.00
2023-01-31T13:10:38.937Z,5.90
2023-01-31T13:13:15.991Z,5.80
2023-01-31T13:15:48.645Z,5.90
2023-01-31T13:18:17.954Z,5.90
2023-01-31T13:20:52.552Z,5.90
2023-01-31T13:23:29.900Z,5.80
2023-01-31T13:26:03.443Z,5.70
2023-01-31T13:28:37.197Z,5.60
2023-01-31T13:31:09.655Z,5.50
2023-01-31T13:33:41.929Z,5.50
2023-01-31T13:36:26.581Z,5.50
2023-01-31T13:38:54.869Z,5.60
2023-01-31T13:41:29.190Z,5.50
2023-01-31T13:43:59.364Z,5.50
2023-01-31T13:46:33.957Z,5.40
2023-01-31T13:49:06.911Z,5.40
2023-01-31T13:51:38.651Z,5.40
2023-01-31T13:54:15.713Z,5.40
2023-01-31T13:56:47.569Z,5.30
2023-01-31T13:59:23.209Z,5.30
2023-01-31T14:01:52.730Z,5.30
2023-01-31T14:04:31.536Z,5.30
2023-01-31T14:07:18.614Z,5.30
2023-01-31T14:10:27.407Z,5.30
2023-01-31T14:13:58.086Z,5.30
2023-01-31T14:16:39.958Z,5.30
2023-01-31T14:20:07.426Z,5.30
2023-01-31T14:23:26.992Z,5.30
2023-01-31T14:26:33.488Z,5.20
2023-01-31T14:29:08.863Z,5.30
2023-01-31T14:31:38.344Z,5.40
2023-01-31T14:34:07.778Z,5.50
2023-01-31T14:36:58.654Z,5.50
2023-01-31T14:39:42.197Z,5.50
2023-01-31T14:42:49.891Z,5.40
2023-01-31T14:45:40.035Z,5.40
2023-01-31T14:48:35.216Z,5.40
2023-01-31T14:51:30.353Z,5.40
2023-01-31T14:54:23.809Z,5.40
2023-01-31T14:57:14.306Z,5.40
2023-01-31T14:59:53.540Z,5.40
2023-01-31T15:02:37.794Z,5.40
2023-01-31T15:05:15.202Z,5.30
2023-01-31T15:08:00.712Z,5.30
2023-01-31T15:10:59.105Z,5.30
2023-01-31T15:17:33.758Z,5.30
2023-01-31T15:20:15.914Z,5.30
2023-01-31T15:22:46.762Z,5.30
2023-01-31T15:25:34.507Z,5.30
2023-01-31T15:28:06.025Z,5.30
2023-01-31T15:30:37.138Z,5.30
2023-01-31T15:33:09.537Z,5.40
2023-01-31T15:35:50.760Z,5.40
2023-01-31T15:38:28.296Z,5.50
2023-01-31T15:41:18.907Z,5.50
2023-01-31T15:43:47.520Z,5.50
2023-01-31T15:46:22.571Z,5.50
2023-01-31T15:48:51.208Z,5.50
2023-01-31T15:51:21.755Z,5.50
2023-01-31T15:54:06.125Z,5.50
2023-01-31T15:56:37.869Z,5.50
2023-01-31T15:59:52.517Z,5.60
2023-01-31T16:02:25.568Z,5.60
2023-01-31T16:04:54.119Z,5.70
2023-01-31T16:07:28.667Z,5.60
2023-01-31T16:09:58.782Z,5.60
2023-01-31T16:12:28.715Z,5.60
2023-01-31T16:15:00.272Z,5.70
2023-01-31T16:17:28.999Z,5.60
2023-01-31T16:19:58.275Z,5.60
2023-01-31T16:22:30.491Z,5.60
2023-01-31T16:25:00.756Z,5.60
2023-01-31T16:27:31.364Z,5.60
2023-01-31T16:30:00.729Z,5.70
2023-01-31T16:32:31.031Z,5.70
2023-01-31T16:35:01.349Z,5.60
2023-01-31T16:37:34.458Z,5.70
2023-01-31T16:40:07.048Z,5.70
2023-01-31T16:42:50.674Z,5.70
2023-01-31T16:45:30.070Z,5.60
2023-01-31T16:48:17.253Z,5.60
2023-01-31T16:50:45.355Z,5.60
2023-01-31T16:53:27.096Z,5.50
2023-01-31T16:56:22.686Z,5.50
2023-01-31T16:58:59.855Z,5.50
2023-01-31T17:01:31.872Z,5.50
2023-01-31T17:04:04.391Z,5.40
2023-01-31T17:06:32.899Z,5.40
2023-01-31T17:09:05.195Z,5.30
2023-01-31T17:11:42.730Z,5.40
2023-01-31T17:14:11.859Z,5.40
2023-01-31T17:16:40.449Z,5.40
2023-01-31T17:19:08.320Z,5.40
2023-01-31T17:21:43.292Z,5.40
2023-01-31T17:24:15.671Z,5.40
2023-01-31T17:29:58.539Z,5.40
2023-01-31T17:32:26.482Z,5.40
2023-01-31T17:34:54.403Z,5.40
2023-01-31T17:37:31.011Z,5.50
2023-01-31T17:40:02.757Z,5.40
2023-01-31T17:42:30.793Z,5.40
2023-01-31T17:45:00.934Z,5.50
2023-01-31T17:47:28.902Z,5.50
2023-01-31T17:49:57.419Z,5.50
2023-01-31T17:52:25.528Z,5.50
2023-01-31T17:54:54.007Z,5.40
2023-01-31T17:57:31.388Z,5.40
2023-01-31T18:00:09.435Z,5.40
2023-01-31T18:02:37.820Z,5.40
2023-01-31T18:05:06.493Z,5.50
2023-01-31T18:07:34.443Z,5.50
2023-01-31T18:10:02.659Z,5.40
2023-01-31T18:12:34.353Z,5.40
2023-01-31T18:15:07.494Z,5.40
2023-01-31T18:17:38.820Z,5.30
2023-01-31T18:20:09.561Z,5.30
2023-01-31T18:22:38.862Z,5.40
2023-01-31T18:25:08.543Z,5.40
2023-01-31T18:27:41.422Z,5.40
2023-01-31T18:30:11.188Z,5.50
2023-01-31T18:32:39.205Z,5.50
2023-01-31T18:35:12.426Z,5.50
2023-01-31T18:37:48.233Z,5.50
2023-01-31T18:40:22.910Z,5.50
2023-01-31T18:42:53.254Z,5.50
2023-01-31T18:45:21.472Z,5.50
2023-01-31T18:47:49.539Z,5.50
2023-01-31T18:50:18.065Z,5.50
2023-01-31T18:52:47.319Z,5.50
2023-01-31T18:55:15.278Z,5.50
2023-01-31T18:57:43.224Z,5.50
2023-01-31T19:00:14.035Z,5.50
2023-01-31T19:02:41.975Z,5.50
2023-01-31T19:05:10.278Z,5.60
2023-01-31T19:07:38.207Z,5.60
2023-01-31T19:10:07.406Z,5.60
2023-01-31T19:12:41.029Z,5.50
2023-01-31T19:15:11.109Z,5.60
2023-01-31T19:17:40.486Z,5.50
2023-01-31T19:20:10.569Z,5.50
2023-01-31T19:22:40.552Z,5.50
2023-01-31T19:25:11.027Z,5.50
2023-01-31T19:27:41.374Z,5.50
2023-01-31T19:30:10.622Z,5.50
2023-01-31T19:32:39.868Z,5.50
2023-01-31T19:35:08.977Z,5.50
2023-01-31T19:37:36.905Z,5.50
2023-01-31T19:40:05.208Z,5.60
2023-01-31T19:42:33.159Z,5.60
2023-01-31T19:45:01.046Z,5.50
2023-01-31T19:47:28.897Z,5.50
2023-01-31T19:49:58.142Z,5.50
2023-01-31T19:52:26.035Z,5.50
2023-01-31T19:54:54.148Z,5.40
2023-01-31T19:57:22.031Z,5.40
2023-01-31T19:59:50.109Z,5.40
2023-01-31T20:02:18.238Z,5.40
2023-01-31T20:04:46.414Z,5.40
2023-01-31T20:07:15.641Z,5.40
2023-01-31T20:09:43.543Z,5.50
2023-01-31T20:12:12.338Z,5.50
2023-01-31T20:14:40.208Z,5.50
2023-01-31T20:17:08.170Z,5.50
2023-01-31T20:19:36.228Z,5.50
2023-01-31T20:22:04.226Z,5.50
2023-01-31T20:24:33.514Z,5.50
2023-01-31T20:27:01.584Z,5.50
2023-01-31T20:29:29.791Z,5.50
2023-01-31T20:31:57.890Z,5.50
2023-01-31T20:34:28.840Z,5.50
2023-01-31T20:36:57.978Z,5.50
2023-01-31T20:39:26.676Z,5.50
2023-01-31T20:41:56.986Z,5.50
2023-01-31T20:44:24.847Z,5.40
2023-01-31T20:46:55.802Z,5.50
2023-01-31T20:49:23.965Z,5.50
2023-01-31T20:51:52.100Z,5.40
2023-01-31T20:54:20.017Z,5.40
2023-01-31T20:56:48.456Z,5.50
2023-01-31T20:59:17.839Z,5.50
2023-01-31T21:01:46.757Z,5.50
2023-01-31T21:04:14.756Z,5.50
2023-01-31T21:06:42.968Z,5.50
2023-01-31T21:09:14.264Z,5.50
2023-01-31T21:11:42.172Z,5.50
2023-01-31T21:14:10.192Z,5.60
2023-01-31T21:16:39.586Z,5.50
2023-01-31T21:19:07.681Z,5.50
2023-01-31T21:21:36.092Z,5.60
2023-01-31T21:24:04.639Z,5.60
2023-01-31T21:26:32.769Z,5.60
2023-01-31T21:29:02.799Z,5.60
2023-01-31T21:31:33.860Z,5.60
2023-01-31T21:34:06.675Z,5.60
2023-01-31T21:36:36.222Z,5.60
2023-01-31T21:39:04.174Z,5.60
2023-01-31T21:41:49.551Z,5.60
2023-01-31T21:44:17.560Z,5.50
2023-01-31T21:46:46.581Z,5.50
2023-01-31T21:49:15.804Z,5.50
2023-01-31T21:51:43.727Z,5.50
2023-01-31T21:54:12.143Z,5.50
2023-01-31T21:56:40.059Z,5.50
2023-01-31T21:59:08.029Z,5.50
2023-01-31T22:01:37.360Z,5.50
2023-01-31T22:04:05.423Z,5.50
2023-01-31T22:06:37.908Z,5.50
2023-01-31T22:09:07.715Z,5.50
2023-01-31T22:11:35.878Z,5.50
2023-01-31T22:14:05.795Z,5.60
2023-01-31T22:16:40.805Z,5.50
2023-01-31T22:19:12.086Z,5.50
2023-01-31T22:21:46.224Z,5.50
2023-01-31T22:24:14.277Z,5.40
2023-01-31T22:26:45.200Z,5.50
2023-01-31T22:29:15.545Z,5.50
2023-01-31T22:31:45.806Z,5.50
2023-01-31T22:34:15.140Z,5.50
2023-01-31T22:36:44.514Z,5.40
2023-01-31T22:39:16.089Z,5.40
2023-01-31T22:41:45.052Z,5.40
2023-01-31T22:44:13.069Z,5.40
2023-01-31T22:46:41.096Z,5.50
2023-01-31T22:49:09.193Z,5.50
2023-01-31T22:51:37.069Z,5.50
2023-01-31T22:54:06.524Z,5.50
2023-01-31T22:56:36.076Z,5.50
2023-01-31T22:59:06.525Z,5.40
2023-01-31T23:01:36.839Z,5.40
2023-01-31T23:04:06.553Z,5.40
2023-01-31T23:06:35.609Z,5.40
2023-01-31T23:09:03.619Z,5.40
2023-01-31T23:11:32.894Z,5.40
2023-01-31T23:14:00.859Z,5.40
2023-01-31T23:16:42.645Z,5.40
2023-01-31T23:19:10.722Z,5.40
2023-01-31T23:21:42.543Z,5.40
2023-01-31T23:24:11.493Z,5.40
2023-01-31T23:26:41.035Z,5.40
2023-01-31T23:29:09.080Z,5.40
2023-01-31T23:31:37.499Z,5.40
2023-01-31T23:34:07.386Z,5.40
2023-01-31T23:36:35.923Z,5.40
2023-01-31T23:39:04.648Z,5.40
2023-01-31T23:41:32.536Z,5.40
2023-01-31T23:44:01.825Z,5.40
2023-01-31T23:46:29.812Z,5.40
2023-01-31T23:48:57.674Z,5.40
2023-01-31T23:51:26.741Z,5.40
2023-01-31T23:53:54.655Z,5.40
2023-01-31T23:56:22.724Z,5.40
2023-01-31T23:58:50.597Z,5.40
